Iacri, Brazil
Current Conditions -  °F | °C
As of 12:00 PM on Saturday 25 Oct 2014 (Local Time) from SBDN Reporting Station
Overcast Overcast  
Wind Chill: 72°   Ceiling: 6000
Heat Index: 72°   Visibility: 6mi
Dew Point: 68°   Wind: 8mph
Humidity: 88%   Direction: 60°ENE
Pressure: 30"   Gusts: NA
Location:  21.86°S, 50.69°W
Report Text: SBDN 251400Z 06007KT 9999 SCT010 BKN060 OVC100 22/20 Q1016
Loading
Personal Weather Stations






























Interactive Weather Map
Tropical Storm Tracking
New forecast layout! Learn more

10-Day Weather Forecast

Advertisements
Track Severe Weather on mobile